createdAt,value
2023-01-25T00:02:24.290Z,0.69
2023-01-25T00:04:52.430Z,0.55
2023-01-25T00:07:22.883Z,0.41
2023-01-25T00:09:50.945Z,0.58
2023-01-25T00:12:22.325Z,0.51
2023-01-25T00:14:50.438Z,0.50
2023-01-25T00:17:19.925Z,0.55
2023-01-25T00:19:48.036Z,0.70
2023-01-25T00:22:17.959Z,0.90
2023-01-25T00:24:46.371Z,0.85
2023-01-25T00:27:14.393Z,0.94
2023-01-25T00:29:42.804Z,0.83
2023-01-25T00:32:42.471Z,0.79
2023-01-25T00:35:13.295Z,0.81
2023-01-25T00:37:43.655Z,0.83
2023-01-25T00:40:13.116Z,0.63
2023-01-25T00:42:41.808Z,0.76
2023-01-25T00:45:12.179Z,0.59
2023-01-25T00:47:42.054Z,0.55
2023-01-25T00:50:11.192Z,0.41
2023-01-25T00:52:39.229Z,0.68
2023-01-25T00:55:08.452Z,0.46
2023-01-25T00:57:36.901Z,0.09
2023-01-25T01:00:06.279Z,0.09
2023-01-25T01:02:34.415Z,0.34
2023-01-25T01:05:04.124Z,0.33
2023-01-25T01:07:32.879Z,0.09
2023-01-25T01:10:01.487Z,0.10
2023-01-25T01:12:29.650Z,0.33
2023-01-25T01:14:57.808Z,0.49
2023-01-25T01:17:26.108Z,0.08
2023-01-25T01:19:54.100Z,0.21
2023-01-25T01:22:23.626Z,0.31
2023-01-25T01:24:51.660Z,0.33
2023-01-25T01:27:20.154Z,0.29
2023-01-25T01:29:48.209Z,0.43
2023-01-25T01:32:16.555Z,0.37
2023-01-25T01:34:44.616Z,0.21
2023-01-25T01:37:12.860Z,0.28
2023-01-25T01:39:42.262Z,0.44
2023-01-25T01:42:10.332Z,0.12
2023-01-25T01:44:46.917Z,0.19
2023-01-25T01:47:16.873Z,0.07
2023-01-25T01:49:45.125Z,0.44
2023-01-25T01:52:14.125Z,0.25
2023-01-25T01:54:44.275Z,0.18
2023-01-25T01:57:14.462Z,0.31
2023-01-25T01:59:43.944Z,0.28
2023-01-25T02:02:12.116Z,0.61
2023-01-25T02:04:40.091Z,0.58
2023-01-25T02:07:11.281Z,0.53
2023-01-25T02:09:39.302Z,0.34
2023-01-25T02:12:08.925Z,0.28
2023-01-25T02:14:36.959Z,0.30
2023-01-25T02:17:05.129Z,0.23
2023-01-25T02:19:42.009Z,-0.01
2023-01-25T02:22:11.095Z,0.12
2023-01-25T02:24:39.111Z,0.21
2023-01-25T02:27:08.586Z,0.13
2023-01-25T02:29:36.598Z,0.27
2023-01-25T02:32:05.212Z,0.21
2023-01-25T02:34:33.371Z,0.26
2023-01-25T02:37:01.617Z,0.13
2023-01-25T02:39:29.594Z,0.33
2023-01-25T02:41:57.671Z,0.25
2023-01-25T02:44:27.778Z,0.38
2023-01-25T02:46:55.781Z,0.28
2023-01-25T02:49:23.914Z,0.43
2023-01-25T02:51:55.891Z,0.15
2023-01-25T02:54:24.315Z,0.21
2023-01-25T02:56:53.579Z,0.35
2023-01-25T02:59:22.147Z,0.34
2023-01-25T03:01:51.735Z,0.61
2023-01-25T03:04:19.910Z,0.52
2023-01-25T03:06:48.142Z,0.35
2023-01-25T03:09:20.061Z,0.33
2023-01-25T03:11:48.172Z,0.51
2023-01-25T03:14:16.440Z,0.47
2023-01-25T03:16:44.410Z,0.39
2023-01-25T03:19:16.693Z,0.66
2023-01-25T03:21:44.686Z,0.71
2023-01-25T03:24:12.803Z,0.62
2023-01-25T03:26:54.641Z,0.66
2023-01-25T03:29:22.743Z,0.77
2023-01-25T03:31:51.141Z,0.76
2023-01-25T03:34:20.985Z,0.46
2023-01-25T03:36:49.344Z,0.64
2023-01-25T03:39:17.797Z,0.57
2023-01-25T03:41:45.827Z,0.50
2023-01-25T03:44:14.043Z,0.56
2023-01-25T03:46:42.438Z,0.57
2023-01-25T03:49:10.951Z,0.63
2023-01-25T03:51:40.336Z,0.70
2023-01-25T03:54:10.271Z,0.63
2023-01-25T03:56:38.512Z,0.57
2023-01-25T03:59:06.902Z,0.55
2023-01-25T04:01:34.998Z,0.63
2023-01-25T04:04:03.197Z,0.57
2023-01-25T04:06:31.279Z,0.61
2023-01-25T04:09:01.143Z,0.55
2023-01-25T04:11:29.145Z,0.42
2023-01-25T04:13:57.141Z,0.53
2023-01-25T04:16:25.197Z,0.35
2023-01-25T04:18:53.653Z,0.50
2023-01-25T04:21:21.656Z,0.49
2023-01-25T04:23:52.772Z,0.62
2023-01-25T04:26:22.126Z,0.56
2023-01-25T04:28:50.615Z,0.53
2023-01-25T04:31:18.811Z,0.58
2023-01-25T04:33:46.976Z,0.63
2023-01-25T04:36:15.423Z,0.27
2023-01-25T04:38:43.444Z,0.58
2023-01-25T04:41:11.540Z,0.54
2023-01-25T04:43:41.023Z,0.50
2023-01-25T04:46:10.270Z,0.45
2023-01-25T04:48:38.314Z,0.27
2023-01-25T04:51:06.560Z,0.34
2023-01-25T04:53:35.113Z,0.35
2023-01-25T04:56:03.325Z,0.31
2023-01-25T04:58:31.530Z,0.37
2023-01-25T05:01:03.243Z,0.49
2023-01-25T05:03:33.549Z,0.48
2023-01-25T05:06:01.898Z,0.15
2023-01-25T05:08:29.904Z,0.28
2023-01-25T05:10:58.007Z,0.11
2023-01-25T05:13:25.941Z,0.23
2023-01-25T05:15:53.959Z,0.26
2023-01-25T05:18:23.462Z,0.09
2023-01-25T05:20:55.745Z,0.02
2023-01-25T05:23:23.790Z,0.16
2023-01-25T05:26:23.656Z,0.20
2023-01-25T05:28:51.634Z,0.32
2023-01-25T05:31:19.740Z,0.39
2023-01-25T05:33:49.209Z,0.14
2023-01-25T05:36:17.272Z,0.30
2023-01-25T05:38:45.269Z,0.16
2023-01-25T05:41:13.252Z,0.15
2023-01-25T05:43:41.184Z,0.25
2023-01-25T05:46:09.735Z,0.44
2023-01-25T05:48:37.952Z,0.42
2023-01-25T05:51:07.648Z,0.45
2023-01-25T05:53:35.759Z,0.22
2023-01-25T05:56:07.096Z,0.30
2023-01-25T05:58:35.199Z,0.30
2023-01-25T06:01:03.253Z,0.35
2023-01-25T06:03:31.928Z,0.34
2023-01-25T06:06:03.036Z,0.47
2023-01-25T06:08:32.585Z,0.41
2023-01-25T06:11:01.064Z,0.35
2023-01-25T06:13:30.069Z,0.06
2023-01-25T06:15:58.245Z,0.21
2023-01-25T06:18:26.353Z,0.61
2023-01-25T06:20:57.724Z,0.46
2023-01-25T06:23:26.497Z,0.56
2023-01-25T06:26:00.822Z,0.53
2023-01-25T06:28:34.285Z,0.45
2023-01-25T06:31:07.309Z,0.67
2023-01-25T06:33:36.796Z,0.78
2023-01-25T06:36:05.681Z,0.74
2023-01-25T06:38:33.711Z,0.73
2023-01-25T06:41:03.943Z,0.58
2023-01-25T06:43:33.963Z,0.55
2023-01-25T06:46:03.362Z,0.61
2023-01-25T06:48:32.886Z,0.68
2023-01-25T06:51:02.039Z,0.90
2023-01-25T06:53:30.931Z,0.55
2023-01-25T06:56:00.894Z,0.53
2023-01-25T06:58:30.814Z,0.32
2023-01-25T07:01:01.596Z,0.37
2023-01-25T07:03:30.019Z,0.42
2023-01-25T07:06:01.584Z,0.17
2023-01-25T07:08:29.652Z,0.61
2023-01-25T07:10:57.964Z,0.56
2023-01-25T07:13:26.510Z,0.61
2023-01-25T07:15:56.854Z,0.57
2023-01-25T07:18:24.932Z,0.60
2023-01-25T07:20:53.573Z,0.70
2023-01-25T07:23:21.603Z,0.67
2023-01-25T07:25:51.755Z,0.53
2023-01-25T07:28:19.767Z,0.69
2023-01-25T07:30:49.282Z,0.81
2023-01-25T07:33:18.812Z,0.61
2023-01-25T07:35:46.813Z,0.58
2023-01-25T07:38:15.409Z,0.54
2023-01-25T07:40:43.438Z,0.71
2023-01-25T07:43:11.432Z,0.84
2023-01-25T07:45:39.945Z,0.51
2023-01-25T07:48:13.050Z,0.33
2023-01-25T07:50:46.528Z,0.67
2023-01-25T07:53:14.568Z,0.49
2023-01-25T07:55:42.547Z,0.70
2023-01-25T07:58:12.182Z,0.54
2023-01-25T08:00:40.462Z,0.51
2023-01-25T08:03:10.279Z,0.87
2023-01-25T08:05:39.553Z,0.68
2023-01-25T08:08:09.702Z,0.68
2023-01-25T08:10:37.835Z,0.63
2023-01-25T08:13:07.197Z,0.86
2023-01-25T08:15:39.533Z,0.50
2023-01-25T08:18:07.645Z,0.53
2023-01-25T08:20:35.695Z,0.55
2023-01-25T08:23:04.539Z,0.68
2023-01-25T08:25:40.734Z,0.84
2023-01-25T08:28:11.571Z,0.82
2023-01-25T08:30:48.672Z,0.71
2023-01-25T08:33:23.752Z,0.84
2023-01-25T08:35:56.765Z,0.94
2023-01-25T08:38:25.349Z,0.72
2023-01-25T08:40:54.748Z,0.75
2023-01-25T08:43:22.859Z,0.78
2023-01-25T08:45:58.648Z,0.55
2023-01-25T08:48:26.616Z,0.51
2023-01-25T08:50:54.678Z,0.47
2023-01-25T08:53:23.038Z,0.64
2023-01-25T08:55:51.230Z,0.47
2023-01-25T08:58:22.695Z,0.54
2023-01-25T09:00:51.487Z,0.68
2023-01-25T09:03:30.108Z,0.90
2023-01-25T09:05:59.216Z,0.99
2023-01-25T09:08:28.647Z,0.94
2023-01-25T09:11:03.532Z,0.76
2023-01-25T09:13:34.509Z,0.81
2023-01-25T09:16:06.934Z,0.91
2023-01-25T09:18:35.665Z,1.06
2023-01-25T09:21:07.478Z,1.00
2023-01-25T09:23:44.420Z,1.08
2023-01-25T09:26:19.961Z,0.81
2023-01-25T09:28:51.525Z,1.04
2023-01-25T09:31:22.609Z,1.00
2023-01-25T09:33:51.354Z,0.86
2023-01-25T09:36:19.483Z,0.81
2023-01-25T09:38:47.693Z,0.89
2023-01-25T09:41:42.648Z,1.09
2023-01-25T09:44:25.493Z,0.89
2023-01-25T09:46:54.498Z,0.91
2023-01-25T09:49:35.149Z,1.09
2023-01-25T09:52:21.503Z,1.21
2023-01-25T09:54:50.456Z,1.13
2023-01-25T09:57:21.315Z,1.06
2023-01-25T09:59:52.101Z,1.07
2023-01-25T10:02:37.181Z,0.88
2023-01-25T10:05:08.801Z,0.90
2023-01-25T10:07:52.173Z,0.82
2023-01-25T10:10:21.285Z,1.18
2023-01-25T10:12:49.454Z,1.00
2023-01-25T10:15:24.242Z,1.01
2023-01-25T10:17:58.375Z,1.10
2023-01-25T10:20:30.530Z,1.11
2023-01-25T10:23:07.183Z,1.24
2023-01-25T10:25:37.191Z,1.46
2023-01-25T10:28:15.869Z,1.22
2023-01-25T10:30:49.195Z,1.15
2023-01-25T10:33:18.787Z,1.16
2023-01-25T10:35:48.619Z,1.01
2023-01-25T10:38:19.702Z,0.75
2023-01-25T10:40:50.265Z,0.92
2023-01-25T10:43:19.504Z,1.05
2023-01-25T10:45:50.493Z,1.11
2023-01-25T10:48:20.991Z,0.91
2023-01-25T10:50:50.982Z,1.01
2023-01-25T10:53:29.820Z,1.11
2023-01-25T10:56:03.744Z,0.98
2023-01-25T10:58:38.134Z,1.08
2023-01-25T11:01:08.699Z,0.97
2023-01-25T11:03:38.781Z,1.00
2023-01-25T11:06:07.641Z,1.13
2023-01-25T11:08:37.159Z,1.38
2023-01-25T11:11:26.707Z,1.26
2023-01-25T11:13:56.247Z,1.29
2023-01-25T11:16:36.596Z,1.20
2023-01-25T11:19:04.685Z,1.13
2023-01-25T11:21:33.300Z,1.14
2023-01-25T11:24:03.627Z,1.35
2023-01-25T11:26:31.856Z,1.44
2023-01-25T11:29:13.941Z,1.40
2023-01-25T11:31:46.399Z,1.28
2023-01-25T11:34:15.521Z,1.16
2023-01-25T11:36:58.379Z,1.24
2023-01-25T11:39:37.922Z,1.16
2023-01-25T11:42:13.833Z,1.04
2023-01-25T11:44:58.871Z,1.20
2023-01-25T11:47:37.118Z,1.37
2023-01-25T11:50:09.395Z,1.35
2023-01-25T11:52:55.290Z,1.53
2023-01-25T11:55:26.449Z,1.56
2023-01-25T11:58:05.465Z,1.26
2023-01-25T12:00:41.987Z,1.59
2023-01-25T12:03:46.985Z,1.56
2023-01-25T12:06:17.137Z,1.30
2023-01-25T12:09:03.483Z,1.14
2023-01-25T12:11:47.254Z,1.02
2023-01-25T12:14:20.705Z,1.18
2023-01-25T12:16:58.519Z,1.44
2023-01-25T12:19:52.431Z,1.45
2023-01-25T12:22:40.316Z,1.41
2023-01-25T12:25:20.903Z,1.51
2023-01-25T12:27:56.706Z,1.32
2023-01-25T12:30:29.443Z,1.29
2023-01-25T12:33:08.894Z,1.40
2023-01-25T12:35:44.536Z,1.36
2023-01-25T12:38:15.185Z,1.48
2023-01-25T12:40:48.298Z,1.30
2023-01-25T12:43:18.180Z,1.49
2023-01-25T12:45:46.517Z,1.50
2023-01-25T12:48:18.284Z,1.46
2023-01-25T12:50:48.531Z,1.55
2023-01-25T12:53:20.867Z,1.41
2023-01-25T12:55:49.350Z,1.26
2023-01-25T12:58:26.360Z,1.04
2023-01-25T13:01:01.412Z,1.18
2023-01-25T13:03:32.025Z,1.20
2023-01-25T13:06:08.969Z,1.16
2023-01-25T13:08:43.860Z,1.18
2023-01-25T13:11:15.323Z,1.12
2023-01-25T13:13:43.578Z,1.00
2023-01-25T13:16:35.778Z,0.85
2023-01-25T13:19:04.139Z,1.09
2023-01-25T13:21:45.104Z,1.10
2023-01-25T13:24:25.081Z,1.03
2023-01-25T13:27:04.400Z,1.10
2023-01-25T13:30:00.517Z,1.13
2023-01-25T13:33:00.168Z,1.49
2023-01-25T13:35:33.843Z,1.44
2023-01-25T13:38:21.079Z,1.36
2023-01-25T13:41:03.668Z,1.16
2023-01-25T13:43:32.335Z,1.03
2023-01-25T13:46:00.820Z,0.96
2023-01-25T13:48:28.961Z,1.15
2023-01-25T13:50:59.361Z,1.28
2023-01-25T13:53:29.548Z,1.18
2023-01-25T13:56:00.804Z,1.28
2023-01-25T13:58:30.571Z,1.32
2023-01-25T14:00:59.359Z,1.37
2023-01-25T14:03:29.183Z,1.33
2023-01-25T14:06:00.228Z,1.37
2023-01-25T14:08:28.913Z,1.19
2023-01-25T14:10:57.070Z,1.07
2023-01-25T14:13:26.764Z,1.16
2023-01-25T14:15:56.760Z,1.13
2023-01-25T14:18:31.394Z,1.05
2023-01-25T14:21:13.761Z,0.87
2023-01-25T14:23:41.823Z,0.87
2023-01-25T14:26:19.060Z,0.97
2023-01-25T14:28:59.415Z,1.09
2023-01-25T14:31:34.931Z,0.98
2023-01-25T14:34:05.221Z,1.15
2023-01-25T14:36:34.981Z,1.09
2023-01-25T14:39:04.829Z,1.07
2023-01-25T14:41:34.034Z,0.93
2023-01-25T14:44:05.211Z,1.03
2023-01-25T14:46:34.001Z,1.01
2023-01-25T14:49:25.399Z,0.81
2023-01-25T14:51:57.571Z,0.77
2023-01-25T14:54:27.698Z,0.84
2023-01-25T14:56:56.985Z,0.91
2023-01-25T14:59:32.561Z,1.08
2023-01-25T15:02:02.502Z,1.01
2023-01-25T15:04:30.778Z,1.07
2023-01-25T15:07:01.195Z,0.92
2023-01-25T15:09:39.975Z,1.02
2023-01-25T15:12:29.328Z,1.00
2023-01-25T15:14:59.392Z,0.67
2023-01-25T15:17:44.305Z,0.61
2023-01-25T15:20:38.891Z,0.80
2023-01-25T15:23:24.716Z,0.86
2023-01-25T15:25:53.522Z,0.93
2023-01-25T15:28:21.634Z,0.80
2023-01-25T15:30:51.676Z,0.73
2023-01-25T15:33:21.440Z,0.57
2023-01-25T15:35:50.634Z,0.45
2023-01-25T15:38:19.033Z,0.49
2023-01-25T15:40:49.995Z,0.52
2023-01-25T15:43:18.745Z,0.66
2023-01-25T15:45:48.144Z,0.55
2023-01-25T15:48:18.663Z,0.79
2023-01-25T15:50:51.752Z,0.57
2023-01-25T15:53:20.786Z,0.49
2023-01-25T15:55:49.886Z,0.48
2023-01-25T15:58:23.885Z,0.66
2023-01-25T16:00:52.053Z,0.54
2023-01-25T16:03:21.580Z,0.54
2023-01-25T16:05:51.692Z,0.30
2023-01-25T16:08:21.443Z,0.17
2023-01-25T16:10:49.894Z,0.11
2023-01-25T16:13:18.038Z,0.36
2023-01-25T16:15:46.374Z,0.54
2023-01-25T16:18:14.495Z,0.37
2023-01-25T16:20:44.525Z,0.27
2023-01-25T16:23:13.154Z,0.30
2023-01-25T16:25:41.438Z,0.26
2023-01-25T16:28:11.736Z,0.32
2023-01-25T16:30:41.379Z,0.41
2023-01-25T16:33:09.765Z,0.52
2023-01-25T16:35:38.046Z,0.03
2023-01-25T16:38:08.354Z,0.34
2023-01-25T16:40:39.750Z,0.33
2023-01-25T16:43:08.113Z,0.49
2023-01-25T16:45:36.594Z,0.10
2023-01-25T16:48:06.375Z,0.17
2023-01-25T16:50:35.992Z,0.16
2023-01-25T16:53:06.204Z,0.15
2023-01-25T16:55:35.765Z,-0.06
2023-01-25T16:58:03.865Z,0.07
2023-01-25T17:00:31.925Z,0.05
2023-01-25T17:03:00.022Z,-0.06
2023-01-25T17:05:33.045Z,-0.28
2023-01-25T17:08:01.467Z,-0.08
2023-01-25T17:10:33.153Z,-0.08
2023-01-25T17:13:03.252Z,0.12
2023-01-25T17:15:31.493Z,0.11
2023-01-25T17:17:59.579Z,0.07
2023-01-25T17:20:28.525Z,-0.12
2023-01-25T17:22:56.451Z,0.02
2023-01-25T17:25:30.533Z,0.22
2023-01-25T17:27:58.537Z,0.14
2023-01-25T17:30:28.022Z,0.07
2023-01-25T17:32:56.065Z,0.02
2023-01-25T17:35:24.128Z,0.10
2023-01-25T17:37:55.021Z,0.16
2023-01-25T17:40:23.084Z,0.15
2023-01-25T17:42:52.809Z,0.12
2023-01-25T17:45:21.698Z,0.07
2023-01-25T17:47:51.149Z,0.20
2023-01-25T17:50:20.134Z,0.44
2023-01-25T17:52:51.690Z,0.41
2023-01-25T17:55:19.819Z,0.25
2023-01-25T17:57:51.268Z,0.27
2023-01-25T18:00:20.350Z,0.22
2023-01-25T18:02:48.327Z,0.21
2023-01-25T18:05:18.466Z,-0.05
2023-01-25T18:07:47.879Z,0.24
2023-01-25T18:10:18.066Z,0.05
2023-01-25T18:13:03.579Z,0.21
2023-01-25T18:15:33.124Z,0.03
2023-01-25T18:18:01.855Z,0.15
2023-01-25T18:20:31.949Z,0.28
2023-01-25T18:22:59.940Z,0.16
2023-01-25T18:25:32.763Z,-0.05
2023-01-25T18:28:00.821Z,-0.09
2023-01-25T18:30:32.307Z,0.13
2023-01-25T18:33:01.549Z,0.02
2023-01-25T18:35:31.974Z,0.11
2023-01-25T18:38:00.143Z,0.15
2023-01-25T18:40:29.929Z,-0.14
2023-01-25T18:42:59.408Z,0.01
2023-01-25T18:45:27.443Z,0.14
2023-01-25T18:47:55.495Z,0.03
2023-01-25T18:50:23.846Z,0.13
2023-01-25T18:52:54.404Z,0.09
2023-01-25T18:55:22.566Z,0.22
2023-01-25T18:57:50.615Z,0.32
2023-01-25T19:00:19.371Z,0.42
2023-01-25T19:02:47.468Z,0.60
2023-01-25T19:05:18.641Z,0.21
2023-01-25T19:07:46.722Z,0.23
2023-01-25T19:10:16.341Z,0.46
2023-01-25T19:12:44.329Z,0.42
2023-01-25T19:15:13.118Z,-0.01
2023-01-25T19:17:41.142Z,0.26
2023-01-25T19:20:10.711Z,0.10
2023-01-25T19:22:40.548Z,0.30
2023-01-25T19:25:10.056Z,0.47
2023-01-25T19:27:39.626Z,0.47
2023-01-25T19:30:08.990Z,0.46
2023-01-25T19:32:37.223Z,0.30
2023-01-25T19:35:08.309Z,0.23
2023-01-25T19:37:36.717Z,0.10
2023-01-25T19:40:08.413Z,0.00
2023-01-25T19:42:36.630Z,0.12
2023-01-25T19:45:14.801Z,-0.01
2023-01-25T19:47:46.189Z,0.16
2023-01-25T19:50:14.641Z,0.27
2023-01-25T19:52:43.251Z,0.32
2023-01-25T19:55:11.560Z,0.20
2023-01-25T19:57:39.830Z,0.17
2023-01-25T20:00:11.620Z,0.34
2023-01-25T20:02:39.679Z,0.12
2023-01-25T20:05:08.636Z,0.24
2023-01-25T20:07:36.937Z,0.27
2023-01-25T20:10:06.083Z,0.29
2023-01-25T20:12:34.643Z,0.16
2023-01-25T20:15:02.682Z,0.18
2023-01-25T20:17:32.461Z,0.27
2023-01-25T20:20:00.523Z,0.29
2023-01-25T20:22:28.639Z,0.06
2023-01-25T20:24:57.067Z,0.18
2023-01-25T20:27:25.196Z,0.03
2023-01-25T20:29:53.884Z,0.03
2023-01-25T20:32:32.495Z,-0.02
2023-01-25T20:35:06.079Z,-0.18
2023-01-25T20:37:34.255Z,-0.03
2023-01-25T20:40:02.325Z,0.18
2023-01-25T20:42:30.362Z,0.37
2023-01-25T20:44:59.455Z,0.02
2023-01-25T20:47:27.446Z,-0.03
2023-01-25T20:49:55.593Z,0.24
2023-01-25T20:52:25.004Z,0.13
2023-01-25T20:54:54.055Z,0.24
2023-01-25T20:57:22.091Z,0.33
2023-01-25T20:59:50.103Z,0.18
2023-01-25T21:02:18.335Z,0.18
2023-01-25T21:04:46.679Z,0.31
2023-01-25T21:07:14.709Z,0.33
2023-01-25T21:09:45.408Z,0.12
2023-01-25T21:12:13.882Z,0.22
2023-01-25T21:14:44.713Z,0.30
2023-01-25T21:17:14.313Z,0.15
2023-01-25T21:19:42.462Z,0.25
2023-01-25T21:22:10.505Z,0.24
2023-01-25T21:24:39.812Z,0.47
2023-01-25T21:27:10.449Z,0.17
2023-01-25T21:29:38.603Z,0.33
2023-01-25T21:32:06.799Z,0.24
2023-01-25T21:34:34.835Z,0.00
2023-01-25T21:37:03.024Z,0.33
2023-01-25T21:39:31.556Z,0.49
2023-01-25T21:41:59.566Z,0.13
2023-01-25T21:44:47.630Z,-0.12
2023-01-25T21:47:29.382Z,-0.02
2023-01-25T21:50:16.003Z,0.17
2023-01-25T21:52:44.018Z,0.12
2023-01-25T21:55:12.561Z,0.23
2023-01-25T21:57:49.369Z,0.30
2023-01-25T22:00:20.680Z,0.25
2023-01-25T22:02:54.676Z,0.31
2023-01-25T22:05:22.649Z,0.13
2023-01-25T22:07:50.892Z,0.19
2023-01-25T22:10:19.274Z,0.06
2023-01-25T22:12:50.622Z,0.05
2023-01-25T22:15:20.138Z,0.11
2023-01-25T22:17:48.131Z,0.08
2023-01-25T22:20:16.762Z,0.13
2023-01-25T22:22:44.829Z,0.22
2023-01-25T22:25:12.923Z,0.22
2023-01-25T22:27:47.326Z,0.19
2023-01-25T22:30:17.511Z,0.31
2023-01-25T22:32:46.934Z,0.09
2023-01-25T22:35:15.072Z,0.27
2023-01-25T22:37:43.458Z,0.14
2023-01-25T22:40:13.037Z,0.30
2023-01-25T22:42:41.199Z,0.15
2023-01-25T22:45:10.401Z,0.17
2023-01-25T22:47:38.352Z,-0.15
2023-01-25T22:50:08.959Z,-0.22
2023-01-25T22:52:37.299Z,-0.40
2023-01-25T22:55:06.322Z,-0.33
2023-01-25T22:57:34.729Z,-0.25
2023-01-25T23:00:03.144Z,-0.26
2023-01-25T23:02:31.151Z,-0.55
2023-01-25T23:04:59.714Z,-0.42
2023-01-25T23:07:29.207Z,-0.40
2023-01-25T23:09:57.235Z,-0.25
2023-01-25T23:12:25.313Z,-0.20
2023-01-25T23:14:54.122Z,-0.45
2023-01-25T23:17:40.292Z,-0.15
2023-01-25T23:20:09.636Z,-0.27
2023-01-25T23:22:39.231Z,-0.42
2023-01-25T23:25:08.970Z,-0.46
2023-01-25T23:27:36.997Z,-0.27
2023-01-25T23:30:07.360Z,-0.35
2023-01-25T23:32:35.407Z,-0.23
2023-01-25T23:35:03.496Z,-0.14
2023-01-25T23:37:32.843Z,-0.12
2023-01-25T23:40:02.342Z,-0.16
2023-01-25T23:42:30.852Z,-0.09
2023-01-25T23:44:58.900Z,-0.18
2023-01-25T23:47:27.393Z,-0.33
2023-01-25T23:49:56.470Z,-0.13
2023-01-25T23:52:24.527Z,-0.31
2023-01-25T23:54:52.628Z,-0.51
2023-01-25T23:57:22.039Z,-0.52
2023-01-25T23:59:50.510Z,-0.63
